Cote Blanche Bay — WX9469 — position and weather

sailwx.info

Track history (hours):
 
Tides and Currents Weather Stations Pressure Air Temp Water Temp Dewpoint Dewpoint Depression Visibility Wind Speed Wind Dir Waves Ship Positions

Cote Blanche Bay

Owner: Alpha VesselCo, LLC, Suffolk, VA. More information available from US FCC via Universal Licensing System and Coast Guard Vessel Documentation Center.

Last reported at 2018-Jun-21 23:30 UTC. Time now 2018-Jun-21 23:49 UTC.
Position N 29°47' W 092°10'.

Length 49 m; draft 3.5 m.

Type: Fishing. MMSI: 367108850.

Date/timePositionNaut miles runAvg speedWind from/ knotsBaromVisibWave heightAir tempDewpointWater temp
2018-Jun-21 23:30N 29°47' W 092°10'510.4
2018-Jun-21 23:00N 29°43' W 092°15'5 9.9
2018-Jun-21 22:30N 29°38' W 092°16'2 0.1
2018-Jun-21 02:04N 29°40' W 092°15'1 8.5
2018-Jun-21 01:59N 29°41' W 092°15'4 8.5
2018-Jun-21 01:30N 29°44' W 092°14'5 9.1
2018-Jun-21 01:00N 29°47' W 092°09'3 5.2
2018-Jun-21 00:28N 29°49' W 092°08'0 0.0
2018-Jun-20 23:58N 29°49' W 092°08'0 0.0
2018-Jun-20 23:28N 29°49' W 092°08'0 0.0
2018-Jun-20 22:58N 29°49' W 092°08'0 0.0
2018-Jun-20 22:28N 29°49' W 092°08'0 0.0
2018-Jun-20 21:58N 29°49' W 092°08'0 0.0
2018-Jun-20 21:28N 29°49' W 092°08'0 0.0
2018-Jun-20 20:58N 29°49' W 092°08'0 0.0
2018-Jun-20 20:25N 29°49' W 092°08'0 0.0
2018-Jun-20 19:58N 29°49' W 092°08'0 0.0
2018-Jun-20 19:16N 29°49' W 092°08'0 0.0
2018-Jun-20 18:55N 29°49' W 092°08'0 0.0
2018-Jun-20 18:28N 29°49' W 092°08'0 0.0
2018-Jun-20 17:59N 29°49' W 092°08'0 0.0
2018-Jun-20 17:29N 29°49' W 092°08'0 0.0
2018-Jun-20 16:59N 29°49' W 092°08'0 0.0
2018-Jun-20 16:29N 29°49' W 092°08'0 0.0
2018-Jun-20 15:59N 29°49' W 092°08'0 0.0
2018-Jun-20 15:29N 29°49' W 092°08'0 0.0
2018-Jun-20 14:59N 29°49' W 092°08'0 0.0
2018-Jun-20 14:29N 29°49' W 092°08'0 0.0
2018-Jun-20 13:56N 29°49' W 092°08'0 0.0
2018-Jun-20 13:29N 29°49' W 092°08'0 0.0
2018-Jun-20 12:59N 29°49' W 092°08'0 0.0
2018-Jun-20 12:29N 29°49' W 092°08'0 0.0
2018-Jun-20 11:59N 29°49' W 092°08'0 0.0
2018-Jun-20 11:29N 29°49' W 092°08'0 0.0
2018-Jun-20 10:59N 29°49' W 092°08'0 0.0
2018-Jun-20 10:29N 29°49' W 092°08'0 0.0
2018-Jun-20 09:59N 29°49' W 092°08'0 0.0
2018-Jun-20 09:29N 29°49' W 092°08'0 0.0
2018-Jun-20 08:59N 29°49' W 092°08'0 0.0
2018-Jun-20 08:29N 29°49' W 092°08'0 0.0
2018-Jun-20 07:59N 29°49' W 092°08'0 0.0
2018-Jun-20 07:29N 29°49' W 092°08'0 0.0
2018-Jun-20 06:59N 29°49' W 092°08'0 0.0
2018-Jun-20 06:29N 29°49' W 092°08'0 0.0
2018-Jun-20 05:56N 29°49' W 092°08'0 0.0
2018-Jun-20 05:29N 29°49' W 092°08'0 0.0
2018-Jun-20 04:59N 29°49' W 092°08'0 0.0
2018-Jun-20 04:29N 29°49' W 092°08'0 0.0
2018-Jun-20 03:59N 29°49' W 092°08'0 0.0
2018-Jun-20 03:29N 29°49' W 092°08'0 0.0
2018-Jun-20 02:59N 29°49' W 092°08'0 0.0
2018-Jun-20 02:29N 29°49' W 092°08'0 0.0
2018-Jun-20 01:56N 29°49' W 092°08'0 0.0
2018-Jun-20 01:29N 29°49' W 092°08'0 0.0
2018-Jun-20 00:59N 29°49' W 092°08'0 0.0
2018-Jun-20 00:29N 29°49' W 092°08'0 0.0
2018-Jun-19 23:59N 29°49' W 092°08'0 0.0
2018-Jun-19 23:29N 29°49' W 092°08'0 0.0
2018-Jun-19 22:59N 29°49' W 092°08'0 0.0
2018-Jun-19 22:29N 29°49' W 092°08'0 0.0
2018-Jun-19 21:59N 29°49' W 092°08'0 0.0
2018-Jun-19 21:26N 29°49' W 092°08'0 0.0
2018-Jun-19 20:59N 29°49' W 092°08'0 0.0
2018-Jun-19 20:29N 29°49' W 092°08'0 0.0
2018-Jun-19 19:59N 29°49' W 092°08'0 0.0
2018-Jun-19 19:29N 29°49' W 092°08'0 0.0
2018-Jun-19 18:59N 29°49' W 092°08'0 0.0
2018-Jun-19 18:29N 29°49' W 092°08'0 0.0
2018-Jun-19 17:59N 29°49' W 092°08'0 0.0
2018-Jun-19 17:29N 29°49' W 092°08'0 0.0
2018-Jun-19 16:59N 29°49' W 092°08'0 0.0
2018-Jun-19 16:29N 29°49' W 092°08'0 0.0
2018-Jun-19 15:59N 29°49' W 092°08'0 0.0
2018-Jun-19 15:29N 29°49' W 092°08'0 0.0
2018-Jun-19 14:59N 29°49' W 092°08'0 0.0
2018-Jun-19 14:26N 29°49' W 092°08'0 0.0
2018-Jun-19 13:59N 29°49' W 092°08'0 0.0
2018-Jun-19 13:29N 29°49' W 092°08'0 0.0
2018-Jun-19 12:56N 29°49' W 092°08'0 0.0
2018-Jun-19 12:29N 29°49' W 092°08'0 0.0
2018-Jun-19 11:59N 29°49' W 092°08'0 0.0
2018-Jun-19 11:29N 29°49' W 092°08'0 0.0
2018-Jun-19 10:59N 29°49' W 092°08'0 0.0
2018-Jun-19 10:29N 29°49' W 092°08'0 0.0
2018-Jun-19 09:59N 29°49' W 092°08'0 0.0
2018-Jun-19 09:29N 29°49' W 092°08'0 0.0
2018-Jun-19 08:59N 29°49' W 092°08'0 0.0
2018-Jun-19 08:29N 29°49' W 092°08'0 0.0
2018-Jun-19 07:59N 29°49' W 092°08'0 0.0
2018-Jun-19 07:29N 29°49' W 092°08'0 0.0
2018-Jun-19 06:59N 29°49' W 092°08'0 0.0
2018-Jun-19 06:29N 29°49' W 092°08'0 0.0
2018-Jun-19 05:59N 29°49' W 092°08'0 0.0
2018-Jun-19 05:29N 29°49' W 092°08'0 0.0
2018-Jun-19 04:59N 29°49' W 092°08'0 0.0
2018-Jun-19 04:29N 29°49' W 092°08'0 0.0
2018-Jun-19 03:59N 29°49' W 092°08'0 0.0
2018-Jun-19 03:29N 29°49' W 092°08'0 0.0
2018-Jun-19 02:59N 29°49' W 092°08'0 0.0
2018-Jun-19 02:29N 29°49' W 092°08'0 0.0
2018-Jun-19 01:59N 29°49' W 092°08'0 0.0
2018-Jun-19 01:29N 29°49' W 092°08'0 0.0
2018-Jun-19 00:59N 29°49' W 092°08'0 0.0
2018-Jun-19 00:29N 29°49' W 092°08'0 0.0
2018-Jun-18 23:56N 29°49' W 092°08'0 0.0
2018-Jun-18 23:29N 29°49' W 092°08'0 0.0
2018-Jun-18 22:59N 29°49' W 092°08'0 0.0
2018-Jun-18 22:29N 29°49' W 092°08'0 0.0
2018-Jun-18 21:59N 29°49' W 092°08'0 0.0
2018-Jun-18 21:29N 29°49' W 092°08'0 0.0
2018-Jun-18 20:59N 29°49' W 092°08'0 0.0
2018-Jun-18 20:29N 29°49' W 092°08'0 0.0
2018-Jun-18 19:59N 29°49' W 092°08'0 0.0
2018-Jun-18 19:29N 29°49' W 092°08'0 0.0
2018-Jun-18 18:59N 29°49' W 092°08'0 0.0
2018-Jun-18 18:29N 29°49' W 092°08'0 0.0
2018-Jun-18 17:59N 29°49' W 092°08'0 0.0
2018-Jun-18 17:29N 29°49' W 092°08'0 0.0
2018-Jun-18 16:59N 29°49' W 092°08'0 0.0
2018-Jun-18 16:29N 29°49' W 092°08'0 0.0
2018-Jun-18 15:59N 29°49' W 092°08'0 0.0
2018-Jun-18 15:29N 29°49' W 092°08'0 0.0
2018-Jun-18 14:59N 29°49' W 092°08'0 0.0
2018-Jun-18 14:29N 29°49' W 092°08'0 0.0
2018-Jun-18 13:56N 29°49' W 092°08'0 0.0
2018-Jun-18 13:29N 29°49' W 092°08'0 0.0
2018-Jun-18 12:59N 29°49' W 092°08'0 0.0
2018-Jun-18 12:29N 29°49' W 092°08'0 0.0
2018-Jun-18 11:59N 29°49' W 092°08'0 0.0
2018-Jun-18 11:23N 29°49' W 092°08'0 0.0
2018-Jun-18 10:59N 29°49' W 092°08'0 0.0
2018-Jun-18 10:29N 29°49' W 092°08'0 0.0
2018-Jun-18 09:59N 29°49' W 092°08'0 0.0
2018-Jun-18 09:29N 29°49' W 092°08'0 0.0
2018-Jun-18 08:59N 29°49' W 092°08'0 0.0
2018-Jun-18 08:29N 29°49' W 092°08'0 0.0
2018-Jun-18 07:59N 29°49' W 092°08'0 0.0
2018-Jun-18 07:29N 29°49' W 092°08'0 0.0
2018-Jun-18 06:59N 29°49' W 092°08'0 0.0
2018-Jun-18 06:29N 29°49' W 092°08'0 0.0
2018-Jun-18 05:59N 29°49' W 092°08'0 0.0
2018-Jun-18 05:29N 29°49' W 092°08'0 0.0
2018-Jun-18 04:59N 29°49' W 092°08'0 0.0
2018-Jun-18 04:29N 29°49' W 092°08'0 0.0
2018-Jun-18 03:59N 29°49' W 092°08'0 0.0
2018-Jun-18 03:29N 29°49' W 092°08'0 0.0
2018-Jun-18 02:59N 29°49' W 092°08'0 0.0
2018-Jun-18 02:29N 29°49' W 092°08'0 0.0
2018-Jun-18 01:59N 29°49' W 092°08'0 0.0
2018-Jun-18 01:29N 29°49' W 092°08'0 0.0
2018-Jun-18 00:59N 29°49' W 092°08'0 0.0
2018-Jun-18 00:26N 29°49' W 092°08'0 0.0
2018-Jun-17 23:59N 29°49' W 092°08'0 0.0
2018-Jun-17 23:29N 29°49' W 092°08'0 0.0
2018-Jun-17 22:59N 29°49' W 092°08'0 0.0
2018-Jun-17 22:29N 29°49' W 092°08'0 0.0
2018-Jun-17 21:59N 29°49' W 092°08'0 0.0
2018-Jun-17 21:29N 29°49' W 092°08'0 0.0
2018-Jun-17 20:59N 29°49' W 092°08'0 0.0
2018-Jun-17 20:29N 29°49' W 092°08'0 0.0
2018-Jun-17 19:59N 29°49' W 092°08'0 0.0
2018-Jun-17 19:29N 29°49' W 092°08'0 0.0
2018-Jun-17 18:59N 29°49' W 092°08'0 0.0
2018-Jun-17 18:29N 29°49' W 092°08'0 0.0
2018-Jun-17 17:59N 29°49' W 092°08'0 0.0
2018-Jun-17 17:29N 29°49' W 092°08'0 0.0
2018-Jun-17 16:59N 29°49' W 092°08'0 0.0
2018-Jun-17 16:29N 29°49' W 092°08'0 0.0
2018-Jun-17 15:59N 29°49' W 092°08'0 0.0
2018-Jun-17 15:29N 29°49' W 092°08'0 0.0
2018-Jun-17 14:59N 29°49' W 092°08'0 0.0
2018-Jun-17 14:29N 29°49' W 092°08'0 0.0
2018-Jun-17 13:59N 29°49' W 092°08'0 0.0
2018-Jun-17 13:29N 29°49' W 092°08'0 0.0
2018-Jun-17 12:59N 29°49' W 092°08'0 0.0
2018-Jun-17 12:29N 29°49' W 092°08'0 0.0
2018-Jun-17 11:59N 29°49' W 092°08'0 0.0
2018-Jun-17 11:29N 29°49' W 092°08'0 0.0
2018-Jun-17 10:59N 29°49' W 092°08'0 0.0
2018-Jun-17 10:29N 29°49' W 092°08'0 0.0
2018-Jun-17 09:59N 29°49' W 092°08'0 0.0
2018-Jun-17 09:29N 29°49' W 092°08'0 0.0
2018-Jun-17 08:59N 29°49' W 092°08'0 0.0
2018-Jun-17 08:26N 29°49' W 092°08'0 0.0
2018-Jun-17 07:59N 29°49' W 092°08'0 0.0
2018-Jun-17 07:29N 29°49' W 092°08'0 0.0
2018-Jun-17 06:59N 29°49' W 092°08'0 0.0
2018-Jun-17 06:29N 29°49' W 092°08'0 0.0
2018-Jun-17 05:59N 29°49' W 092°08'0 0.0
2018-Jun-17 05:29N 29°49' W 092°08'0 0.0
2018-Jun-17 04:59N 29°49' W 092°08'0 0.0
2018-Jun-17 04:29N 29°49' W 092°08'0 0.0
2018-Jun-17 03:59N 29°49' W 092°08'0 0.0
2018-Jun-17 03:29N 29°49' W 092°08'0 0.0
2018-Jun-17 02:59N 29°49' W 092°08'0 0.0
2018-Jun-17 02:29N 29°49' W 092°08'0 0.0
2018-Jun-17 01:59N 29°49' W 092°08'0 0.0
2018-Jun-17 01:29N 29°49' W 092°08'0 0.0
2018-Jun-17 00:59N 29°49' W 092°08'0 0.0
2018-Jun-17 00:29N 29°49' W 092°08'0 0.0
2018-Jun-16 23:59N 29°49' W 092°08'0 0.0
2018-Jun-16 23:29N 29°49' W 092°08'0 0.0
2018-Jun-16 22:59N 29°49' W 092°08'0 0.0
2018-Jun-16 22:29N 29°49' W 092°08'0 0.0
2018-Jun-16 21:59N 29°49' W 092°08'0 0.0
2018-Jun-16 21:26N 29°49' W 092°08'0 0.0
2018-Jun-16 20:59N 29°49' W 092°08'0 0.0
2018-Jun-16 20:29N 29°49' W 092°08'0 0.0
2018-Jun-16 19:59N 29°49' W 092°08'0 0.0
2018-Jun-16 19:29N 29°49' W 092°08'0 0.0
2018-Jun-16 18:59N 29°49' W 092°08'0 0.0
2018-Jun-16 18:29N 29°49' W 092°08'0 0.0
2018-Jun-16 17:59N 29°49' W 092°08'0 0.0
2018-Jun-16 17:29N 29°49' W 092°08'0 0.0
2018-Jun-16 16:59N 29°49' W 092°08'0 0.0
2018-Jun-16 16:29N 29°49' W 092°08'0 0.0
2018-Jun-16 15:59N 29°49' W 092°08'0 0.0
2018-Jun-16 15:29N 29°49' W 092°08'0 0.0
2018-Jun-16 14:59N 29°49' W 092°08'0 0.0
2018-Jun-16 14:29N 29°49' W 092°08'0 0.0
2018-Jun-16 13:59N 29°49' W 092°08'0 0.0
2018-Jun-16 13:29N 29°49' W 092°08'0 0.0
2018-Jun-16 12:59N 29°49' W 092°08'0 0.0
2018-Jun-16 12:29N 29°49' W 092°08'0 0.0
2018-Jun-16 11:59N 29°49' W 092°08'0 0.0
2018-Jun-16 11:29N 29°49' W 092°08'0 0.0
2018-Jun-16 10:59N 29°49' W 092°08'0 0.0
2018-Jun-16 10:29N 29°49' W 092°08'0 0.0
2018-Jun-16 09:59N 29°49' W 092°08'0 0.0
2018-Jun-16 09:29N 29°49' W 092°08'0 0.0
2018-Jun-16 08:59N 29°49' W 092°08'0 0.0
2018-Jun-16 08:29N 29°49' W 092°08'0 0.0
2018-Jun-16 07:59N 29°49' W 092°08'0 0.0
2018-Jun-16 07:29N 29°49' W 092°08'0 0.0
2018-Jun-16 06:59N 29°49' W 092°08'0 0.0
2018-Jun-16 06:29N 29°49' W 092°08'0 0.0
2018-Jun-16 05:59N 29°49' W 092°08'0 0.0
2018-Jun-16 05:29N 29°49' W 092°08'0 0.0
2018-Jun-16 04:59N 29°49' W 092°08'0 0.0
2018-Jun-16 04:29N 29°49' W 092°08'0 0.0
2018-Jun-16 03:59N 29°49' W 092°08'0 0.0
2018-Jun-16 03:29N 29°49' W 092°08'0 0.0
2018-Jun-16 02:59N 29°49' W 092°08'0 0.0
2018-Jun-16 02:29N 29°49' W 092°08'0 0.0
2018-Jun-16 01:59N 29°49' W 092°08'0 0.0
2018-Jun-16 01:29N 29°49' W 092°08'0 0.0
2018-Jun-16 00:59N 29°49' W 092°08'0 0.0
2018-Jun-16 00:29N 29°49' W 092°08'0 0.0
2018-Jun-15 23:59N 29°49' W 092°08'0 0.0
2018-Jun-15 23:29N 29°49' W 092°08'0 0.0
2018-Jun-15 22:59N 29°49' W 092°08'0 0.0
2018-Jun-15 22:29N 29°49' W 092°08'0 0.0
2018-Jun-15 21:59N 29°49' W 092°08'0 0.0
2018-Jun-15 21:29N 29°49' W 092°08'0 0.0
2018-Jun-15 20:59N 29°49' W 092°08'0 0.0
2018-Jun-15 20:29N 29°49' W 092°08'0 0.0
2018-Jun-15 19:59N 29°49' W 092°08'0 0.0
2018-Jun-15 19:29N 29°49' W 092°08'0 0.0
2018-Jun-15 18:59N 29°49' W 092°08'0 0.0
2018-Jun-15 18:29N 29°49' W 092°08'0 0.0
2018-Jun-15 17:59N 29°49' W 092°08'0 0.0
2018-Jun-15 17:29N 29°49' W 092°08'0 0.0
2018-Jun-15 16:59N 29°49' W 092°08'0 0.0
2018-Jun-15 16:26N 29°49' W 092°08'0 0.0
2018-Jun-15 15:59N 29°49' W 092°08'0 0.0
2018-Jun-15 15:29N 29°49' W 092°08'0 0.0
2018-Jun-15 14:59N 29°49' W 092°08'0 0.0
2018-Jun-15 14:29N 29°49' W 092°08'0 0.0
2018-Jun-15 13:59N 29°49' W 092°08'0 0.0
2018-Jun-15 13:29N 29°49' W 092°08'0 0.0
2018-Jun-15 12:59N 29°49' W 092°08'0 0.0
2018-Jun-15 12:29N 29°49' W 092°08'0 0.0
2018-Jun-15 11:59N 29°49' W 092°08'0 0.0
2018-Jun-15 11:29N 29°49' W 092°08'0 0.0
2018-Jun-15 10:59N 29°49' W 092°08'0 0.0
2018-Jun-15 10:29N 29°49' W 092°08'0 0.0
2018-Jun-15 09:59N 29°49' W 092°08'0 0.0
2018-Jun-15 09:29N 29°49' W 092°08'0 0.0
2018-Jun-15 08:59N 29°49' W 092°08'0 0.0
2018-Jun-15 08:29N 29°49' W 092°08'0 0.0
2018-Jun-15 07:59N 29°49' W 092°08'0 0.0
2018-Jun-15 07:29N 29°49' W 092°08'0 0.0
2018-Jun-15 06:59N 29°49' W 092°08'0 0.0
2018-Jun-15 06:23N 29°49' W 092°08'0 0.0
2018-Jun-15 05:59N 29°49' W 092°08'0 0.0
2018-Jun-15 05:29N 29°49' W 092°08'0 0.0
2018-Jun-15 04:59N 29°49' W 092°08'0 0.0
2018-Jun-15 04:29N 29°49' W 092°08'0 0.0
2018-Jun-15 03:59N 29°49' W 092°08'0 0.0
2018-Jun-15 03:29N 29°49' W 092°08'0 0.0
2018-Jun-15 02:59N 29°49' W 092°08'0 0.0
2018-Jun-15 02:26N 29°49' W 092°08'0 0.0
2018-Jun-15 01:59N 29°49' W 092°08'0 0.0
2018-Jun-15 01:29N 29°49' W 092°08'0 0.0
2018-Jun-15 00:59N 29°49' W 092°08'0 0.0
2018-Jun-15 00:29N 29°49' W 092°08'0 0.0
2018-Jun-14 23:59N 29°49' W 092°08'0 0.0
2018-Jun-14 23:29N 29°49' W 092°08'0 0.0
2018-Jun-14 22:59N 29°49' W 092°08'0 0.0
2018-Jun-14 22:29N 29°49' W 092°08'0 0.0
2018-Jun-14 21:59N 29°49' W 092°08'0 0.0
2018-Jun-14 21:29N 29°49' W 092°08'0 0.3
2018-Jun-14 20:58N 29°49' W 092°08'0 0.0
2018-Jun-14 20:28N 29°49' W 092°08'0 0.0
2018-Jun-14 20:00N 29°49' W 092°08'3 4.8
2018-Jun-14 19:25N 29°52' W 092°08'1 0.1
2018-Jun-14 13:09N 29°53' W 092°08'0 0.1
2018-Jun-14 12:48N 29°53' W 092°08'0 0.0
2018-Jun-14 12:15N 29°53' W 092°08'0 0.5
2018-Jun-14 11:48N 29°52' W 092°08'1 4.5
2018-Jun-14 11:30N 29°51' W 092°08'2 3.5
2018-Jun-14 11:00N 29°49' W 092°08'0 0.0
2018-Jun-14 10:30N 29°49' W 092°08'0 0.0
2018-Jun-14 10:00N 29°49' W 092°08'0 0.0
2018-Jun-14 09:28N 29°49' W 092°08'0 0.3
2018-Jun-14 09:00N 29°49' W 092°08'0 0.0
2018-Jun-14 08:30N 29°49' W 092°08'0 0.0
2018-Jun-14 08:00N 29°49' W 092°08'0 0.0
2018-Jun-14 07:27N 29°49' W 092°08'0 0.0
2018-Jun-14 07:00N 29°49' W 092°08'0 0.0
2018-Jun-14 06:30N 29°49' W 092°08'0 0.0
2018-Jun-14 06:00N 29°49' W 092°08'0 0.0
2018-Jun-14 05:30N 29°49' W 092°08'0 0.0
2018-Jun-14 05:00N 29°49' W 092°08'0 0.0
2018-Jun-14 04:30N 29°49' W 092°08'0 0.0
2018-Jun-14 04:00N 29°49' W 092°08'0 0.0
2018-Jun-14 03:30N 29°49' W 092°08'0 0.0
2018-Jun-14 03:00N 29°49' W 092°08'0 0.0
2018-Jun-14 02:30N 29°49' W 092°08'1 3.1
2018-Jun-14 02:00N 29°48' W 092°08'3 6.8
2018-Jun-14 01:30N 29°46' W 092°11'4 8.8
2018-Jun-14 01:00N 29°42' W 092°15'4 8.4
2018-Jun-14 00:30N 29°38' W 092°16'  
Track history (hours):
 
Tides and Currents Weather Stations Pressure Air Temp Water Temp Dewpoint Dewpoint Depression Visibility Wind Speed Wind Dir Waves Ship Positions

Cote Blanche Bay

Owner: Alpha VesselCo, LLC, Suffolk, VA. More information available from US FCC via Universal Licensing System and Coast Guard Vessel Documentation Center.

Last reported at 2018-Jun-21 23:30 UTC. Time now 2018-Jun-21 23:49 UTC.
Position N 29°47' W 092°10'.

Length 49 m; draft 3.5 m.

Type: Fishing. MMSI: 367108850.

Date/timePositionNaut miles runAvg speedWind from/ knotsBaromVisibWave heightAir tempDewpointWater temp
2018-Jun-21 23:30N 29°47' W 092°10'510.4
2018-Jun-21 23:00N 29°43' W 092°15'5 9.9
2018-Jun-21 22:30N 29°38' W 092°16'2 0.1
2018-Jun-21 02:04N 29°40' W 092°15'1 8.5
2018-Jun-21 01:59N 29°41' W 092°15'4 8.5
2018-Jun-21 01:30N 29°44' W 092°14'5 9.1
2018-Jun-21 01:00N 29°47' W 092°09'3 5.2
2018-Jun-21 00:28N 29°49' W 092°08'0 0.0
2018-Jun-20 23:58N 29°49' W 092°08'0 0.0
2018-Jun-20 23:28N 29°49' W 092°08'0 0.0
2018-Jun-20 22:58N 29°49' W 092°08'0 0.0
2018-Jun-20 22:28N 29°49' W 092°08'0 0.0
2018-Jun-20 21:58N 29°49' W 092°08'0 0.0
2018-Jun-20 21:28N 29°49' W 092°08'0 0.0
2018-Jun-20 20:58N 29°49' W 092°08'0 0.0
2018-Jun-20 20:25N 29°49' W 092°08'0 0.0
2018-Jun-20 19:58N 29°49' W 092°08'0 0.0
2018-Jun-20 19:16N 29°49' W 092°08'0 0.0
2018-Jun-20 18:55N 29°49' W 092°08'0 0.0
2018-Jun-20 18:28N 29°49' W 092°08'0 0.0
2018-Jun-20 17:59N 29°49' W 092°08'0 0.0
2018-Jun-20 17:29N 29°49' W 092°08'0 0.0
2018-Jun-20 16:59N 29°49' W 092°08'0 0.0
2018-Jun-20 16:29N 29°49' W 092°08'0 0.0
2018-Jun-20 15:59N 29°49' W 092°08'0 0.0
2018-Jun-20 15:29N 29°49' W 092°08'0 0.0
2018-Jun-20 14:59N 29°49' W 092°08'0 0.0
2018-Jun-20 14:29N 29°49' W 092°08'0 0.0
2018-Jun-20 13:56N 29°49' W 092°08'0 0.0
2018-Jun-20 13:29N 29°49' W 092°08'0 0.0
2018-Jun-20 12:59N 29°49' W 092°08'0 0.0
2018-Jun-20 12:29N 29°49' W 092°08'0 0.0
2018-Jun-20 11:59N 29°49' W 092°08'0 0.0
2018-Jun-20 11:29N 29°49' W 092°08'0 0.0
2018-Jun-20 10:59N 29°49' W 092°08'0 0.0
2018-Jun-20 10:29N 29°49' W 092°08'0 0.0
2018-Jun-20 09:59N 29°49' W 092°08'0 0.0
2018-Jun-20 09:29N 29°49' W 092°08'0 0.0
2018-Jun-20 08:59N 29°49' W 092°08'0 0.0
2018-Jun-20 08:29N 29°49' W 092°08'0 0.0
2018-Jun-20 07:59N 29°49' W 092°08'0 0.0
2018-Jun-20 07:29N 29°49' W 092°08'0 0.0
2018-Jun-20 06:59N 29°49' W 092°08'0 0.0
2018-Jun-20 06:29N 29°49' W 092°08'0 0.0
2018-Jun-20 05:56N 29°49' W 092°08'0 0.0
2018-Jun-20 05:29N 29°49' W 092°08'0 0.0
2018-Jun-20 04:59N 29°49' W 092°08'0 0.0
2018-Jun-20 04:29N 29°49' W 092°08'0 0.0
2018-Jun-20 03:59N 29°49' W 092°08'0 0.0
2018-Jun-20 03:29N 29°49' W 092°08'0 0.0
2018-Jun-20 02:59N 29°49' W 092°08'0 0.0
2018-Jun-20 02:29N 29°49' W 092°08'0 0.0
2018-Jun-20 01:56N 29°49' W 092°08'0 0.0
2018-Jun-20 01:29N 29°49' W 092°08'0 0.0
2018-Jun-20 00:59N 29°49' W 092°08'0 0.0
2018-Jun-20 00:29N 29°49' W 092°08'0 0.0
2018-Jun-19 23:59N 29°49' W 092°08'0 0.0
2018-Jun-19 23:29N 29°49' W 092°08'0 0.0
2018-Jun-19 22:59N 29°49' W 092°08'0 0.0
2018-Jun-19 22:29N 29°49' W 092°08'0 0.0
2018-Jun-19 21:59N 29°49' W 092°08'0 0.0
2018-Jun-19 21:26N 29°49' W 092°08'0 0.0
2018-Jun-19 20:59N 29°49' W 092°08'0 0.0
2018-Jun-19 20:29N 29°49' W 092°08'0 0.0
2018-Jun-19 19:59N 29°49' W 092°08'0 0.0
2018-Jun-19 19:29N 29°49' W 092°08'0 0.0
2018-Jun-19 18:59N 29°49' W 092°08'0 0.0
2018-Jun-19 18:29N 29°49' W 092°08'0 0.0
2018-Jun-19 17:59N 29°49' W 092°08'0 0.0
2018-Jun-19 17:29N 29°49' W 092°08'0 0.0
2018-Jun-19 16:59N 29°49' W 092°08'0 0.0
2018-Jun-19 16:29N 29°49' W 092°08'0 0.0
2018-Jun-19 15:59N 29°49' W 092°08'0 0.0
2018-Jun-19 15:29N 29°49' W 092°08'0 0.0
2018-Jun-19 14:59N 29°49' W 092°08'0 0.0
2018-Jun-19 14:26N 29°49' W 092°08'0 0.0
2018-Jun-19 13:59N 29°49' W 092°08'0 0.0
2018-Jun-19 13:29N 29°49' W 092°08'0 0.0
2018-Jun-19 12:56N 29°49' W 092°08'0 0.0
2018-Jun-19 12:29N 29°49' W 092°08'0 0.0
2018-Jun-19 11:59N 29°49' W 092°08'0 0.0
2018-Jun-19 11:29N 29°49' W 092°08'0 0.0
2018-Jun-19 10:59N 29°49' W 092°08'0 0.0
2018-Jun-19 10:29N 29°49' W 092°08'0 0.0
2018-Jun-19 09:59N 29°49' W 092°08'0 0.0
2018-Jun-19 09:29N 29°49' W 092°08'0 0.0
2018-Jun-19 08:59N 29°49' W 092°08'0 0.0
2018-Jun-19 08:29N 29°49' W 092°08'0 0.0
2018-Jun-19 07:59N 29°49' W 092°08'0 0.0
2018-Jun-19 07:29N 29°49' W 092°08'0 0.0
2018-Jun-19 06:59N 29°49' W 092°08'0 0.0
2018-Jun-19 06:29N 29°49' W 092°08'0 0.0
2018-Jun-19 05:59N 29°49' W 092°08'0 0.0
2018-Jun-19 05:29N 29°49' W 092°08'0 0.0
2018-Jun-19 04:59N 29°49' W 092°08'0 0.0
2018-Jun-19 04:29N 29°49' W 092°08'0 0.0
2018-Jun-19 03:59N 29°49' W 092°08'0 0.0
2018-Jun-19 03:29N 29°49' W 092°08'0 0.0
2018-Jun-19 02:59N 29°49' W 092°08'0 0.0
2018-Jun-19 02:29N 29°49' W 092°08'0 0.0
2018-Jun-19 01:59N 29°49' W 092°08'0 0.0
2018-Jun-19 01:29N 29°49' W 092°08'0 0.0
2018-Jun-19 00:59N 29°49' W 092°08'0 0.0
2018-Jun-19 00:29N 29°49' W 092°08'0 0.0
2018-Jun-18 23:56N 29°49' W 092°08'0 0.0
2018-Jun-18 23:29N 29°49' W 092°08'0 0.0
2018-Jun-18 22:59N 29°49' W 092°08'0 0.0
2018-Jun-18 22:29N 29°49' W 092°08'0 0.0
2018-Jun-18 21:59N 29°49' W 092°08'0 0.0
2018-Jun-18 21:29N 29°49' W 092°08'0 0.0
2018-Jun-18 20:59N 29°49' W 092°08'0 0.0
2018-Jun-18 20:29N 29°49' W 092°08'0 0.0
2018-Jun-18 19:59N 29°49' W 092°08'0 0.0
2018-Jun-18 19:29N 29°49' W 092°08'0 0.0
2018-Jun-18 18:59N 29°49' W 092°08'0 0.0
2018-Jun-18 18:29N 29°49' W 092°08'0 0.0
2018-Jun-18 17:59N 29°49' W 092°08'0 0.0
2018-Jun-18 17:29N 29°49' W 092°08'0 0.0
2018-Jun-18 16:59N 29°49' W 092°08'0 0.0
2018-Jun-18 16:29N 29°49' W 092°08'0 0.0
2018-Jun-18 15:59N 29°49' W 092°08'0 0.0
2018-Jun-18 15:29N 29°49' W 092°08'0 0.0
2018-Jun-18 14:59N 29°49' W 092°08'0 0.0
2018-Jun-18 14:29N 29°49' W 092°08'0 0.0
2018-Jun-18 13:56N 29°49' W 092°08'0 0.0
2018-Jun-18 13:29N 29°49' W 092°08'0 0.0
2018-Jun-18 12:59N 29°49' W 092°08'0 0.0
2018-Jun-18 12:29N 29°49' W 092°08'0 0.0
2018-Jun-18 11:59N 29°49' W 092°08'0 0.0
2018-Jun-18 11:23N 29°49' W 092°08'0 0.0
2018-Jun-18 10:59N 29°49' W 092°08'0 0.0
2018-Jun-18 10:29N 29°49' W 092°08'0 0.0
2018-Jun-18 09:59N 29°49' W 092°08'0 0.0
2018-Jun-18 09:29N 29°49' W 092°08'0 0.0
2018-Jun-18 08:59N 29°49' W 092°08'0 0.0
2018-Jun-18 08:29N 29°49' W 092°08'0 0.0
2018-Jun-18 07:59N 29°49' W 092°08'0 0.0
2018-Jun-18 07:29N 29°49' W 092°08'0 0.0
2018-Jun-18 06:59N 29°49' W 092°08'0 0.0
2018-Jun-18 06:29N 29°49' W 092°08'0 0.0
2018-Jun-18 05:59N 29°49' W 092°08'0 0.0
2018-Jun-18 05:29N 29°49' W 092°08'0 0.0
2018-Jun-18 04:59N 29°49' W 092°08'0 0.0
2018-Jun-18 04:29N 29°49' W 092°08'0 0.0
2018-Jun-18 03:59N 29°49' W 092°08'0 0.0
2018-Jun-18 03:29N 29°49' W 092°08'0 0.0
2018-Jun-18 02:59N 29°49' W 092°08'0 0.0
2018-Jun-18 02:29N 29°49' W 092°08'0 0.0
2018-Jun-18 01:59N 29°49' W 092°08'0 0.0
2018-Jun-18 01:29N 29°49' W 092°08'0 0.0
2018-Jun-18 00:59N 29°49' W 092°08'0 0.0
2018-Jun-18 00:26N 29°49' W 092°08'0 0.0
2018-Jun-17 23:59N 29°49' W 092°08'0 0.0
2018-Jun-17 23:29N 29°49' W 092°08'0 0.0
2018-Jun-17 22:59N 29°49' W 092°08'0 0.0
2018-Jun-17 22:29N 29°49' W 092°08'0 0.0
2018-Jun-17 21:59N 29°49' W 092°08'0 0.0
2018-Jun-17 21:29N 29°49' W 092°08'0 0.0
2018-Jun-17 20:59N 29°49' W 092°08'0 0.0
2018-Jun-17 20:29N 29°49' W 092°08'0 0.0
2018-Jun-17 19:59N 29°49' W 092°08'0 0.0
2018-Jun-17 19:29N 29°49' W 092°08'0 0.0
2018-Jun-17 18:59N 29°49' W 092°08'0 0.0
2018-Jun-17 18:29N 29°49' W 092°08'0 0.0
2018-Jun-17 17:59N 29°49' W 092°08'0 0.0
2018-Jun-17 17:29N 29°49' W 092°08'0 0.0
2018-Jun-17 16:59N 29°49' W 092°08'0 0.0
2018-Jun-17 16:29N 29°49' W 092°08'0 0.0
2018-Jun-17 15:59N 29°49' W 092°08'0 0.0
2018-Jun-17 15:29N 29°49' W 092°08'0 0.0
2018-Jun-17 14:59N 29°49' W 092°08'0 0.0
2018-Jun-17 14:29N 29°49' W 092°08'0 0.0
2018-Jun-17 13:59N 29°49' W 092°08'0 0.0
2018-Jun-17 13:29N 29°49' W 092°08'0 0.0
2018-Jun-17 12:59N 29°49' W 092°08'0 0.0
2018-Jun-17 12:29N 29°49' W 092°08'0 0.0
2018-Jun-17 11:59N 29°49' W 092°08'0 0.0
2018-Jun-17 11:29N 29°49' W 092°08'0 0.0
2018-Jun-17 10:59N 29°49' W 092°08'0 0.0
2018-Jun-17 10:29N 29°49' W 092°08'0 0.0
2018-Jun-17 09:59N 29°49' W 092°08'0 0.0
2018-Jun-17 09:29N 29°49' W 092°08'0 0.0
2018-Jun-17 08:59N 29°49' W 092°08'0 0.0
2018-Jun-17 08:26N 29°49' W 092°08'0 0.0
2018-Jun-17 07:59N 29°49' W 092°08'0 0.0
2018-Jun-17 07:29N 29°49' W 092°08'0 0.0
2018-Jun-17 06:59N 29°49' W 092°08'0 0.0
2018-Jun-17 06:29N 29°49' W 092°08'0 0.0
2018-Jun-17 05:59N 29°49' W 092°08'0 0.0
2018-Jun-17 05:29N 29°49' W 092°08'0 0.0
2018-Jun-17 04:59N 29°49' W 092°08'0 0.0
2018-Jun-17 04:29N 29°49' W 092°08'0 0.0
2018-Jun-17 03:59N 29°49' W 092°08'0 0.0
2018-Jun-17 03:29N 29°49' W 092°08'0 0.0
2018-Jun-17 02:59N 29°49' W 092°08'0 0.0
2018-Jun-17 02:29N 29°49' W 092°08'0 0.0
2018-Jun-17 01:59N 29°49' W 092°08'0 0.0
2018-Jun-17 01:29N 29°49' W 092°08'0 0.0
2018-Jun-17 00:59N 29°49' W 092°08'0 0.0
2018-Jun-17 00:29N 29°49' W 092°08'0 0.0
2018-Jun-16 23:59N 29°49' W 092°08'0 0.0
2018-Jun-16 23:29N 29°49' W 092°08'0 0.0
2018-Jun-16 22:59N 29°49' W 092°08'0 0.0
2018-Jun-16 22:29N 29°49' W 092°08'0 0.0
2018-Jun-16 21:59N 29°49' W 092°08'0 0.0
2018-Jun-16 21:26N 29°49' W 092°08'0 0.0
2018-Jun-16 20:59N 29°49' W 092°08'0 0.0
2018-Jun-16 20:29N 29°49' W 092°08'0 0.0
2018-Jun-16 19:59N 29°49' W 092°08'0 0.0
2018-Jun-16 19:29N 29°49' W 092°08'0 0.0
2018-Jun-16 18:59N 29°49' W 092°08'0 0.0
2018-Jun-16 18:29N 29°49' W 092°08'0 0.0
2018-Jun-16 17:59N 29°49' W 092°08'0 0.0
2018-Jun-16 17:29N 29°49' W 092°08'0 0.0
2018-Jun-16 16:59N 29°49' W 092°08'0 0.0
2018-Jun-16 16:29N 29°49' W 092°08'0 0.0
2018-Jun-16 15:59N 29°49' W 092°08'0 0.0
2018-Jun-16 15:29N 29°49' W 092°08'0 0.0
2018-Jun-16 14:59N 29°49' W 092°08'0 0.0
2018-Jun-16 14:29N 29°49' W 092°08'0 0.0
2018-Jun-16 13:59N 29°49' W 092°08'0 0.0
2018-Jun-16 13:29N 29°49' W 092°08'0 0.0
2018-Jun-16 12:59N 29°49' W 092°08'0 0.0
2018-Jun-16 12:29N 29°49' W 092°08'0 0.0
2018-Jun-16 11:59N 29°49' W 092°08'0 0.0
2018-Jun-16 11:29N 29°49' W 092°08'0 0.0
2018-Jun-16 10:59N 29°49' W 092°08'0 0.0
2018-Jun-16 10:29N 29°49' W 092°08'0 0.0
2018-Jun-16 09:59N 29°49' W 092°08'0 0.0
2018-Jun-16 09:29N 29°49' W 092°08'0 0.0
2018-Jun-16 08:59N 29°49' W 092°08'0 0.0
2018-Jun-16 08:29N 29°49' W 092°08'0 0.0
2018-Jun-16 07:59N 29°49' W 092°08'0 0.0
2018-Jun-16 07:29N 29°49' W 092°08'0 0.0
2018-Jun-16 06:59N 29°49' W 092°08'0 0.0
2018-Jun-16 06:29N 29°49' W 092°08'0 0.0
2018-Jun-16 05:59N 29°49' W 092°08'0 0.0
2018-Jun-16 05:29N 29°49' W 092°08'0 0.0
2018-Jun-16 04:59N 29°49' W 092°08'0 0.0
2018-Jun-16 04:29N 29°49' W 092°08'0 0.0
2018-Jun-16 03:59N 29°49' W 092°08'0 0.0
2018-Jun-16 03:29N 29°49' W 092°08'0 0.0
2018-Jun-16 02:59N 29°49' W 092°08'0 0.0
2018-Jun-16 02:29N 29°49' W 092°08'0 0.0
2018-Jun-16 01:59N 29°49' W 092°08'0 0.0
2018-Jun-16 01:29N 29°49' W 092°08'0 0.0
2018-Jun-16 00:59N 29°49' W 092°08'0 0.0
2018-Jun-16 00:29N 29°49' W 092°08'0 0.0
2018-Jun-15 23:59N 29°49' W 092°08'0 0.0
2018-Jun-15 23:29N 29°49' W 092°08'0 0.0
2018-Jun-15 22:59N 29°49' W 092°08'0 0.0
2018-Jun-15 22:29N 29°49' W 092°08'0 0.0
2018-Jun-15 21:59N 29°49' W 092°08'0 0.0
2018-Jun-15 21:29N 29°49' W 092°08'0 0.0
2018-Jun-15 20:59N 29°49' W 092°08'0 0.0
2018-Jun-15 20:29N 29°49' W 092°08'0 0.0
2018-Jun-15 19:59N 29°49' W 092°08'0 0.0
2018-Jun-15 19:29N 29°49' W 092°08'0 0.0
2018-Jun-15 18:59N 29°49' W 092°08'0 0.0
2018-Jun-15 18:29N 29°49' W 092°08'0 0.0
2018-Jun-15 17:59N 29°49' W 092°08'0 0.0
2018-Jun-15 17:29N 29°49' W 092°08'0 0.0
2018-Jun-15 16:59N 29°49' W 092°08'0 0.0
2018-Jun-15 16:26N 29°49' W 092°08'0 0.0
2018-Jun-15 15:59N 29°49' W 092°08'0 0.0
2018-Jun-15 15:29N 29°49' W 092°08'0 0.0
2018-Jun-15 14:59N 29°49' W 092°08'0 0.0
2018-Jun-15 14:29N 29°49' W 092°08'0 0.0
2018-Jun-15 13:59N 29°49' W 092°08'0 0.0
2018-Jun-15 13:29N 29°49' W 092°08'0 0.0
2018-Jun-15 12:59N 29°49' W 092°08'0 0.0
2018-Jun-15 12:29N 29°49' W 092°08'0 0.0
2018-Jun-15 11:59N 29°49' W 092°08'0 0.0
2018-Jun-15 11:29N 29°49' W 092°08'0 0.0
2018-Jun-15 10:59N 29°49' W 092°08'0 0.0
2018-Jun-15 10:29N 29°49' W 092°08'0 0.0
2018-Jun-15 09:59N 29°49' W 092°08'0 0.0
2018-Jun-15 09:29N 29°49' W 092°08'0 0.0
2018-Jun-15 08:59N 29°49' W 092°08'0 0.0
2018-Jun-15 08:29N 29°49' W 092°08'0 0.0
2018-Jun-15 07:59N 29°49' W 092°08'0 0.0
2018-Jun-15 07:29N 29°49' W 092°08'0 0.0
2018-Jun-15 06:59N 29°49' W 092°08'0 0.0
2018-Jun-15 06:23N 29°49' W 092°08'0 0.0
2018-Jun-15 05:59N 29°49' W 092°08'0 0.0
2018-Jun-15 05:29N 29°49' W 092°08'0 0.0
2018-Jun-15 04:59N 29°49' W 092°08'0 0.0
2018-Jun-15 04:29N 29°49' W 092°08'0 0.0
2018-Jun-15 03:59N 29°49' W 092°08'0 0.0
2018-Jun-15 03:29N 29°49' W 092°08'0 0.0
2018-Jun-15 02:59N 29°49' W 092°08'0 0.0
2018-Jun-15 02:26N 29°49' W 092°08'0 0.0
2018-Jun-15 01:59N 29°49' W 092°08'0 0.0
2018-Jun-15 01:29N 29°49' W 092°08'0 0.0
2018-Jun-15 00:59N 29°49' W 092°08'0 0.0
2018-Jun-15 00:29N 29°49' W 092°08'0 0.0
2018-Jun-14 23:59N 29°49' W 092°08'0 0.0
2018-Jun-14 23:29N 29°49' W 092°08'0 0.0
2018-Jun-14 22:59N 29°49' W 092°08'0 0.0
2018-Jun-14 22:29N 29°49' W 092°08'0 0.0
2018-Jun-14 21:59N 29°49' W 092°08'0 0.0
2018-Jun-14 21:29N 29°49' W 092°08'0 0.3
2018-Jun-14 20:58N 29°49' W 092°08'0 0.0
2018-Jun-14 20:28N 29°49' W 092°08'0 0.0
2018-Jun-14 20:00N 29°49' W 092°08'3 4.8
2018-Jun-14 19:25N 29°52' W 092°08'1 0.1
2018-Jun-14 13:09N 29°53' W 092°08'0 0.1
2018-Jun-14 12:48N 29°53' W 092°08'0 0.0
2018-Jun-14 12:15N 29°53' W 092°08'0 0.5
2018-Jun-14 11:48N 29°52' W 092°08'1 4.5
2018-Jun-14 11:30N 29°51' W 092°08'2 3.5
2018-Jun-14 11:00N 29°49' W 092°08'0 0.0
2018-Jun-14 10:30N 29°49' W 092°08'0 0.0
2018-Jun-14 10:00N 29°49' W 092°08'0 0.0
2018-Jun-14 09:28N 29°49' W 092°08'0 0.3
2018-Jun-14 09:00N 29°49' W 092°08'0 0.0
2018-Jun-14 08:30N 29°49' W 092°08'0 0.0
2018-Jun-14 08:00N 29°49' W 092°08'0 0.0
2018-Jun-14 07:27N 29°49' W 092°08'0 0.0
2018-Jun-14 07:00N 29°49' W 092°08'0 0.0
2018-Jun-14 06:30N 29°49' W 092°08'0 0.0
2018-Jun-14 06:00N 29°49' W 092°08'0 0.0
2018-Jun-14 05:30N 29°49' W 092°08'0 0.0
2018-Jun-14 05:00N 29°49' W 092°08'0 0.0
2018-Jun-14 04:30N 29°49' W 092°08'0 0.0
2018-Jun-14 04:00N 29°49' W 092°08'0 0.0
2018-Jun-14 03:30N 29°49' W 092°08'0 0.0
2018-Jun-14 03:00N 29°49' W 092°08'0 0.0
2018-Jun-14 02:30N 29°49' W 092°08'1 3.1
2018-Jun-14 02:00N 29°48' W 092°08'3 6.8
2018-Jun-14 01:30N 29°46' W 092°11'4 8.8
2018-Jun-14 01:00N 29°42' W 092°15'4 8.4
2018-Jun-14 00:30N 29°38' W 092°16'  

Dump ship's entire track history